Time;durP1;ratioP1;P1;durP2;ratioP2;P2;SDS_P1;SDS_P2;PMS_P1;PMS_P2;Temp;Humidity;BMP_temperature;BMP_pressure;BME280_temperature;BME280_humidity;BME280_pressure;Samples;Min_cycle;Max_cycle;Signal;HPM_P1;HPM_P2
2023/05/07 00:00:34;;;;;;;4.40;1.80;;;;;;;;;;4982202;28;20617;-81
2023/05/07 00:03:00;;;;;;;2.75;1.80;;;;;;;;;;4984350;28;20041;-80
2023/05/07 00:05:26;;;;;;;2.65;1.90;;;;;;;;;;4985675;28;20112;-81
2023/05/07 00:07:55;;;;;;;1.52;1.42;;;;;;;;;;4968644;28;20018;-80
2023/05/07 00:10:21;;;;;;;2.15;1.40;;;;;;;;;;4992376;28;20039;-81
2023/05/07 00:12:47;;;;;;;4.97;1.83;;;;;;;;;;4987740;28;20030;-81
2023/05/07 00:15:13;;;;;;;5.05;2.10;;;;;;;;;;4987572;28;20034;-80
2023/05/07 00:17:39;;;;;;;3.65;1.90;;;;;;;;;;4989469;28;20046;-82
2023/05/07 00:20:05;;;;;;;2.60;1.60;;;;;;;;;;4987850;28;20039;-81
2023/05/07 00:22:32;;;;;;;2.92;1.70;;;;;;;;;;4985948;28;20505;-81
2023/05/07 00:24:58;;;;;;;2.20;1.50;;;;;;;;;;4954615;28;20433;-81
2023/05/07 00:27:25;;;;;;;2.40;1.40;;;;;;;;;;4989406;28;20065;-80
2023/05/07 00:29:51;;;;;;;2.65;1.45;;;;;;;;;;4983751;28;20030;-81
2023/05/07 00:32:17;;;;;;;2.28;1.60;;;;;;;;;;4989129;28;20181;-81
2023/05/07 00:34:43;;;;;;;2.05;1.58;;;;;;;;;;4989763;28;20030;-81
2023/05/07 00:37:09;;;;;;;2.60;1.88;;;;;;;;;;4979433;28;20041;-81
2023/05/07 00:39:35;;;;;;;2.17;1.60;;;;;;;;;;4975473;28;20434;-81
2023/05/07 00:42:02;;;;;;;1.75;1.52;;;;;;;;;;4982818;28;20030;-80
2023/05/07 00:44:28;;;;;;;3.28;1.90;;;;;;;;;;4987362;28;20489;-81
2023/05/07 00:46:54;;;;;;;2.92;1.30;;;;;;;;;;4986980;28;20033;-81
2023/05/07 00:49:20;;;;;;;4.28;1.58;;;;;;;;;;4989357;28;20030;-81
2023/05/07 00:51:47;;;;;;;3.40;1.80;;;;;;;;;;4987169;28;20026;-82
2023/05/07 00:54:14;;;;;;;2.30;1.42;;;;;;;;;;4989382;28;20389;-81
2023/05/07 00:56:40;;;;;;;2.00;1.20;;;;;;;;;;4988949;28;20748;-81
2023/05/07 00:59:06;;;;;;;1.67;1.10;;;;;;;;;;4968457;28;20046;-81
2023/05/07 01:01:32;;;;;;;2.03;1.20;;;;;;;;;;4975049;28;20093;-81
2023/05/07 01:03:58;;;;;;;2.00;1.30;;;;;;;;;;4985942;28;20050;-81
2023/05/07 01:06:26;;;;;;;1.35;1.20;;;;;;;;;;4985278;28;20366;-81
2023/05/07 01:08:52;;;;;;;2.47;1.40;;;;;;;;;;4985036;28;20559;-81
2023/05/07 01:11:20;;;;;;;2.92;1.52;;;;;;;;;;4989215;28;20026;-81
2023/05/07 01:13:47;;;;;;;3.33;1.73;;;;;;;;;;4987696;28;20068;-81
2023/05/07 01:16:13;;;;;;;2.13;1.42;;;;;;;;;;4988064;28;20041;-81
2023/05/07 01:18:39;;;;;;;1.48;1.27;;;;;;;;;;4982742;28;20030;-80
2023/05/07 01:21:06;;;;;;;1.98;1.33;;;;;;;;;;4985356;28;20109;-81
2023/05/07 01:23:33;;;;;;;1.67;1.30;;;;;;;;;;4983453;28;20793;-81
2023/05/07 01:25:59;;;;;;;1.85;1.40;;;;;;;;;;4987502;28;20381;-81
2023/05/07 01:28:25;;;;;;;3.33;1.75;;;;;;;;;;4988027;28;20026;-81
2023/05/07 01:30:53;;;;;;;2.40;1.42;;;;;;;;;;4986634;28;20125;-81
2023/05/07 01:33:24;;;;;;;1.48;1.38;;;;;;;;;;4979226;28;20114;-81
2023/05/07 01:35:52;;;;;;;1.45;1.13;;;;;;;;;;4977526;28;20037;-82
2023/05/07 01:38:18;;;;;;;2.53;1.52;;;;;;;;;;4987203;28;20042;-81
2023/05/07 01:40:44;;;;;;;4.72;1.20;;;;;;;;;;4981809;28;20035;-81
2023/05/07 01:43:11;;;;;;;3.03;1.58;;;;;;;;;;4978853;28;20066;-81
2023/05/07 01:45:37;;;;;;;1.75;1.30;;;;;;;;;;4972950;28;20038;-81
2023/05/07 01:48:03;;;;;;;2.08;1.70;;;;;;;;;;4969396;28;20515;-81
2023/05/07 01:50:30;;;;;;;2.75;1.40;;;;;;;;;;4987069;28;20041;-83
2023/05/07 01:52:56;;;;;;;2.70;1.55;;;;;;;;;;4970260;28;20446;-81
2023/05/07 01:55:22;;;;;;;2.00;1.10;;;;;;;;;;4986860;28;20030;-82
2023/05/07 01:57:48;;;;;;;2.08;1.25;;;;;;;;;;4986032;28;20027;-83
2023/05/07 02:00:14;;;;;;;1.33;1.23;;;;;;;;;;4986584;28;20490;-82
2023/05/07 02:02:40;;;;;;;2.10;1.42;;;;;;;;;;4984879;28;20062;-81
2023/05/07 02:05:06;;;;;;;1.65;1.40;;;;;;;;;;4981456;28;20703;-81
2023/05/07 02:07:32;;;;;;;1.08;0.98;;;;;;;;;;4987032;28;20033;-82
2023/05/07 02:09:58;;;;;;;1.23;1.05;;;;;;;;;;4991745;28;20018;-82
2023/05/07 02:12:24;;;;;;;3.22;1.38;;;;;;;;;;4978549;28;20037;-82
2023/05/07 02:14:50;;;;;;;1.70;1.23;;;;;;;;;;4985515;28;20401;-83
2023/05/07 02:17:16;;;;;;;2.60;1.58;;;;;;;;;;4987509;28;20034;-81
2023/05/07 02:19:42;;;;;;;1.98;1.35;;;;;;;;;;4985200;28;20096;-82
2023/05/07 02:22:08;;;;;;;1.50;1.13;;;;;;;;;;4986984;28;20624;-83
2023/05/07 02:24:34;;;;;;;3.35;1.40;;;;;;;;;;4983852;28;20037;-83
2023/05/07 02:27:01;;;;;;;1.65;1.25;;;;;;;;;;4964274;28;20506;-82
2023/05/07 02:29:29;;;;;;;3.53;1.67;;;;;;;;;;4981354;28;20033;-82
2023/05/07 02:31:56;;;;;;;1.33;1.10;;;;;;;;;;4979303;28;20217;-82
2023/05/07 02:34:22;;;;;;;1.75;1.40;;;;;;;;;;4953677;28;20125;-83
2023/05/07 02:36:48;;;;;;;1.20;0.93;;;;;;;;;;4968842;28;20019;-82
2023/05/07 02:39:15;;;;;;;2.65;1.48;;;;;;;;;;4985041;28;20058;-82
2023/05/07 02:41:41;;;;;;;1.58;1.00;;;;;;;;;;4986249;28;20053;-83
2023/05/07 02:44:07;;;;;;;1.45;1.33;;;;;;;;;;4986201;28;20381;-82
2023/05/07 02:46:33;;;;;;;1.50;1.20;;;;;;;;;;4981590;28;20034;-82
2023/05/07 02:48:59;;;;;;;3.50;1.25;;;;;;;;;;4983130;28;20034;-82
2023/05/07 02:51:26;;;;;;;2.00;1.35;;;;;;;;;;4976861;28;20022;-82
2023/05/07 02:53:53;;;;;;;7.65;1.98;;;;;;;;;;4981168;28;20487;-82
2023/05/07 02:56:18;;;;;;;1.23;0.90;;;;;;;;;;4986824;28;20030;-81
2023/05/07 02:58:47;;;;;;;1.52;1.17;;;;;;;;;;4960003;28;20035;-82
2023/05/07 03:01:14;;;;;;;2.80;1.15;;;;;;;;;;4980731;28;20109;-82
2023/05/07 03:03:40;;;;;;;1.38;0.98;;;;;;;;;;4968553;28;20058;-81
2023/05/07 03:06:07;;;;;;;2.60;1.35;;;;;;;;;;4975788;28;20397;-81
2023/05/07 03:08:33;;;;;;;1.38;1.10;;;;;;;;;;4971876;28;20030;-82
2023/05/07 03:10:59;;;;;;;2.00;1.30;;;;;;;;;;4989997;28;20023;-81
2023/05/07 03:13:25;;;;;;;1.85;1.40;;;;;;;;;;4980076;28;20080;-81
2023/05/07 03:15:51;;;;;;;1.42;1.23;;;;;;;;;;4987839;28;20084;-82
2023/05/07 03:18:17;;;;;;;2.65;1.55;;;;;;;;;;4979349;28;20046;-81
2023/05/07 03:20:43;;;;;;;1.50;1.05;;;;;;;;;;4970520;28;20023;-82
2023/05/07 03:23:09;;;;;;;1.25;1.10;;;;;;;;;;4978962;28;20027;-81
2023/05/07 03:25:35;;;;;;;1.50;1.05;;;;;;;;;;4981688;28;20039;-81
2023/05/07 03:28:01;;;;;;;1.27;1.13;;;;;;;;;;4977606;28;20031;-81
2023/05/07 03:30:27;;;;;;;2.22;1.27;;;;;;;;;;4978152;28;20481;-82
2023/05/07 03:32:53;;;;;;;1.95;1.20;;;;;;;;;;4985934;28;20030;-81
2023/05/07 03:35:19;;;;;;;1.70;1.33;;;;;;;;;;4983704;28;20038;-80
2023/05/07 03:37:45;;;;;;;1.60;1.35;;;;;;;;;;4977717;28;20034;-80
2023/05/07 03:40:12;;;;;;;0.88;0.88;;;;;;;;;;4988243;28;20034;-81
2023/05/07 03:42:38;;;;;;;1.83;1.40;;;;;;;;;;4987491;28;20032;-80
2023/05/07 03:45:04;;;;;;;2.15;1.10;;;;;;;;;;4985297;28;20038;-80
2023/05/07 03:47:30;;;;;;;1.10;1.00;;;;;;;;;;4979582;28;20026;-81
2023/05/07 03:49:56;;;;;;;1.77;1.13;;;;;;;;;;4981696;28;20073;-82
2023/05/07 03:52:25;;;;;;;1.73;1.15;;;;;;;;;;4974882;28;20081;-81
2023/05/07 03:54:51;;;;;;;0.90;0.80;;;;;;;;;;4985267;28;20397;-81
2023/05/07 03:57:17;;;;;;;1.45;1.13;;;;;;;;;;4981328;28;20066;-81
2023/05/07 03:59:43;;;;;;;3.13;1.15;;;;;;;;;;4984852;28;20053;-80
2023/05/07 04:02:18;;;;;;;1.23;1.02;;;;;;;;;;4988983;28;20489;-83
2023/05/07 04:04:44;;;;;;;2.33;1.42;;;;;;;;;;4981320;28;20233;-81
2023/05/07 04:07:10;;;;;;;2.40;1.25;;;;;;;;;;4981908;28;20027;-81
2023/05/07 04:09:36;;;;;;;1.30;1.00;;;;;;;;;;4988812;28;20032;-80
2023/05/07 04:12:02;;;;;;;1.40;1.00;;;;;;;;;;4985395;28;20026;-80
2023/05/07 04:14:28;;;;;;;1.80;1.00;;;;;;;;;;4981922;28;20110;-80
2023/05/07 04:16:54;;;;;;;2.30;1.10;;;;;;;;;;4988643;28;20022;-80
2023/05/07 04:19:20;;;;;;;1.92;1.50;;;;;;;;;;4988355;28;20041;-80
2023/05/07 04:21:46;;;;;;;2.15;1.42;;;;;;;;;;4972328;28;20026;-81
2023/05/07 04:24:12;;;;;;;1.98;1.17;;;;;;;;;;4971052;28;20084;-80
2023/05/07 04:26:38;;;;;;;2.28;1.38;;;;;;;;;;4984395;28;20030;-80
2023/05/07 04:29:04;;;;;;;1.50;1.20;;;;;;;;;;4973103;28;20029;-80
2023/05/07 04:31:30;;;;;;;1.00;0.85;;;;;;;;;;4987948;28;20030;-80
2023/05/07 04:33:56;;;;;;;1.48;0.95;;;;;;;;;;4970390;28;20030;-80
2023/05/07 04:36:22;;;;;;;1.65;1.17;;;;;;;;;;4981252;28;20042;-80
2023/05/07 04:38:48;;;;;;;2.10;0.93;;;;;;;;;;4980631;28;20042;-80
2023/05/07 04:41:14;;;;;;;2.33;1.00;;;;;;;;;;4984404;28;20023;-80
2023/05/07 04:43:41;;;;;;;1.73;1.15;;;;;;;;;;4988800;28;20034;-79
2023/05/07 04:46:07;;;;;;;1.63;1.52;;;;;;;;;;4987119;28;20022;-80
2023/05/07 04:48:33;;;;;;;2.05;1.05;;;;;;;;;;4986671;28;20037;-80
2023/05/07 04:50:59;;;;;;;1.60;1.17;;;;;;;;;;4985902;28;20050;-79
2023/05/07 04:53:25;;;;;;;1.05;0.95;;;;;;;;;;4988244;28;20069;-79
2023/05/07 04:55:56;;;;;;;1.90;1.17;;;;;;;;;;4988375;28;20030;-79
2023/05/07 04:58:22;;;;;;;2.75;1.42;;;;;;;;;;4983806;28;20039;-80
2023/05/07 05:00:48;;;;;;;1.17;0.98;;;;;;;;;;4984901;28;20026;-80
2023/05/07 05:03:14;;;;;;;1.08;0.95;;;;;;;;;;4987190;28;20085;-80
2023/05/07 05:05:40;;;;;;;0.88;0.88;;;;;;;;;;4988883;28;20042;-80
2023/05/07 05:08:06;;;;;;;1.15;1.05;;;;;;;;;;4980894;28;20026;-80
2023/05/07 05:10:32;;;;;;;1.83;1.30;;;;;;;;;;4990771;28;20722;-81
2023/05/07 05:12:58;;;;;;;1.80;1.17;;;;;;;;;;4981713;28;20084;-80
2023/05/07 05:15:24;;;;;;;3.72;1.17;;;;;;;;;;4988142;28;20034;-80
2023/05/07 05:17:50;;;;;;;1.25;1.00;;;;;;;;;;4986626;28;20485;-80
2023/05/07 05:20:16;;;;;;;1.42;1.10;;;;;;;;;;4988530;28;20541;-80
2023/05/07 05:22:42;;;;;;;0.88;0.75;;;;;;;;;;4979543;28;20027;-80
2023/05/07 05:25:08;;;;;;;0.85;0.85;;;;;;;;;;4989306;28;20022;-80
2023/05/07 05:27:35;;;;;;;0.80;0.80;;;;;;;;;;4986605;28;20145;-81
2023/05/07 05:30:01;;;;;;;1.50;1.10;;;;;;;;;;4988801;28;20018;-80
2023/05/07 05:32:27;;;;;;;1.08;0.75;;;;;;;;;;4983722;28;20034;-80
2023/05/07 05:34:53;;;;;;;2.92;1.33;;;;;;;;;;4987057;28;20034;-81
2023/05/07 05:37:19;;;;;;;2.00;1.10;;;;;;;;;;4985338;28;20046;-81
2023/05/07 05:39:45;;;;;;;7.63;1.27;;;;;;;;;;4986654;28;20038;-80
2023/05/07 05:42:11;;;;;;;1.30;0.73;;;;;;;;;;4984635;28;20371;-81
2023/05/07 05:44:37;;;;;;;0.80;0.68;;;;;;;;;;4988224;28;20038;-80
2023/05/07 05:47:03;;;;;;;1.95;1.40;;;;;;;;;;4987691;28;20022;-81
2023/05/07 05:49:29;;;;;;;1.25;0.90;;;;;;;;;;4982922;28;20120;-79
2023/05/07 05:51:55;;;;;;;1.58;1.00;;;;;;;;;;4976517;28;20023;-79
2023/05/07 05:54:21;;;;;;;1.73;1.15;;;;;;;;;;4957394;28;20034;-80
2023/05/07 05:56:47;;;;;;;1.02;0.93;;;;;;;;;;4987237;28;20033;-81
2023/05/07 05:59:13;;;;;;;1.27;1.00;;;;;;;;;;4985267;28;20030;-82
2023/05/07 06:01:39;;;;;;;0.60;0.60;;;;;;;;;;4969288;28;20022;-80
2023/05/07 06:04:06;;;;;;;1.25;0.98;;;;;;;;;;4985508;28;20169;-80
2023/05/07 06:06:32;;;;;;;0.68;0.68;;;;;;;;;;4985330;28;20046;-80
2023/05/07 06:08:58;;;;;;;1.92;1.10;;;;;;;;;;4987854;28;20030;-81
2023/05/07 06:11:24;;;;;;;2.80;1.17;;;;;;;;;;4989311;28;20029;-79
2023/05/07 06:13:50;;;;;;;1.23;1.00;;;;;;;;;;4967034;28;20026;-80
2023/05/07 06:16:16;;;;;;;0.93;0.93;;;;;;;;;;4985084;28;20045;-80
2023/05/07 06:18:42;;;;;;;0.90;0.85;;;;;;;;;;4987769;28;20784;-80
2023/05/07 06:21:08;;;;;;;1.67;0.95;;;;;;;;;;4984666;28;20027;-81
2023/05/07 06:23:34;;;;;;;1.10;1.00;;;;;;;;;;4980097;28;20405;-80
2023/05/07 06:26:00;;;;;;;1.15;1.00;;;;;;;;;;4986835;28;20073;-82
2023/05/07 06:28:26;;;;;;;2.28;1.27;;;;;;;;;;4985032;28;20030;-81
2023/05/07 06:30:52;;;;;;;1.20;0.93;;;;;;;;;;4985784;28;20015;-81
2023/05/07 06:33:19;;;;;;;1.13;1.00;;;;;;;;;;4987064;28;20528;-81
2023/05/07 06:35:45;;;;;;;1.00;0.90;;;;;;;;;;4980901;28;20448;-81
2023/05/07 06:38:12;;;;;;;1.73;1.02;;;;;;;;;;4982912;28;20558;-81
2023/05/07 06:40:38;;;;;;;1.10;1.00;;;;;;;;;;4981358;28;20077;-80
2023/05/07 06:43:04;;;;;;;1.52;0.93;;;;;;;;;;4980455;28;20054;-81
2023/05/07 06:45:30;;;;;;;1.45;0.90;;;;;;;;;;4985962;28;20030;-81
2023/05/07 06:47:56;;;;;;;1.65;1.10;;;;;;;;;;4977847;28;20477;-82
2023/05/07 06:50:22;;;;;;;2.00;1.33;;;;;;;;;;4980719;28;20023;-81
2023/05/07 06:52:48;;;;;;;1.15;0.90;;;;;;;;;;4968511;28;20073;-82
2023/05/07 06:55:14;;;;;;;3.15;1.10;;;;;;;;;;4986661;28;20027;-81
2023/05/07 06:57:40;;;;;;;2.20;1.00;;;;;;;;;;4984857;28;20027;-81
2023/05/07 07:00:08;;;;;;;0.80;0.80;;;;;;;;;;4981926;28;20026;-80
2023/05/07 07:02:34;;;;;;;1.75;1.10;;;;;;;;;;4986192;28;20037;-81
2023/05/07 07:05:00;;;;;;;1.42;1.25;;;;;;;;;;4982065;28;20047;-80
2023/05/07 07:07:26;;;;;;;1.67;1.13;;;;;;;;;;4985973;28;20030;-80
2023/05/07 07:09:52;;;;;;;2.08;1.00;;;;;;;;;;4986655;28;20045;-80
2023/05/07 07:12:18;;;;;;;1.20;1.10;;;;;;;;;;4986739;28;20030;-80
2023/05/07 07:14:44;;;;;;;2.53;1.48;;;;;;;;;;4983114;28;20226;-81
2023/05/07 07:17:10;;;;;;;0.90;0.90;;;;;;;;;;4986170;28;20033;-80
2023/05/07 07:19:37;;;;;;;1.65;1.10;;;;;;;;;;4969093;28;20026;-80
2023/05/07 07:22:03;;;;;;;2.00;1.35;;;;;;;;;;4966698;28;20567;-80
2023/05/07 07:24:29;;;;;;;3.17;1.05;;;;;;;;;;4957899;28;20035;-81
2023/05/07 07:26:55;;;;;;;1.25;0.90;;;;;;;;;;4985642;28;20105;-81
2023/05/07 07:29:26;;;;;;;1.02;0.93;;;;;;;;;;4982559;28;20036;-80
2023/05/07 07:31:52;;;;;;;1.00;0.80;;;;;;;;;;4981234;28;20026;-80
2023/05/07 07:34:18;;;;;;;2.58;1.02;;;;;;;;;;4980476;28;20038;-80
2023/05/07 07:36:44;;;;;;;0.95;0.80;;;;;;;;;;4985095;28;20039;-80
2023/05/07 07:39:10;;;;;;;2.15;1.40;;;;;;;;;;4988544;28;20022;-79
2023/05/07 07:41:36;;;;;;;1.00;0.88;;;;;;;;;;4991268;28;20058;-80
2023/05/07 07:44:03;;;;;;;1.23;1.00;;;;;;;;;;4988608;28;20117;-80
2023/05/07 07:46:29;;;;;;;1.52;0.98;;;;;;;;;;4989091;28;20030;-81
2023/05/07 07:48:55;;;;;;;2.53;0.95;;;;;;;;;;4972125;28;20045;-81
2023/05/07 07:51:21;;;;;;;2.10;1.15;;;;;;;;;;4985161;28;20958;-80
2023/05/07 07:53:47;;;;;;;1.45;0.90;;;;;;;;;;4971882;28;20060;-83
2023/05/07 07:56:13;;;;;;;0.82;0.82;;;;;;;;;;4979643;28;20037;-81
2023/05/07 07:58:39;;;;;;;0.95;0.88;;;;;;;;;;4967638;28;20038;-76
2023/05/07 08:01:05;;;;;;;1.40;0.90;;;;;;;;;;4986959;28;20034;-83
2023/05/07 08:03:32;;;;;;;1.73;0.82;;;;;;;;;;4981740;28;20073;-85
2023/05/07 08:05:58;;;;;;;3.15;1.00;;;;;;;;;;4986795;28;20496;-80
2023/05/07 08:08:24;;;;;;;1.33;0.93;;;;;;;;;;4986561;28;20018;-78
2023/05/07 08:10:50;;;;;;;1.13;0.98;;;;;;;;;;4986630;28;20058;-80
2023/05/07 08:13:16;;;;;;;2.13;0.80;;;;;;;;;;4989384;28;20031;-78
2023/05/07 08:15:42;;;;;;;0.77;0.75;;;;;;;;;;4991071;28;20049;-80
2023/05/07 08:18:08;;;;;;;1.10;1.00;;;;;;;;;;4987649;28;20096;-82
2023/05/07 08:20:39;;;;;;;1.00;0.85;;;;;;;;;;4987145;28;20039;-81
2023/05/07 08:23:05;;;;;;;1.95;1.20;;;;;;;;;;4990445;28;20039;-81
2023/05/07 08:25:33;;;;;;;1.88;1.00;;;;;;;;;;4990455;28;20378;-82
2023/05/07 08:28:01;;;;;;;1.20;1.02;;;;;;;;;;4988411;28;20030;-82
2023/05/07 08:30:27;;;;;;;1.27;0.93;;;;;;;;;;4983238;28;20038;-76
2023/05/07 08:32:53;;;;;;;1.10;1.00;;;;;;;;;;4988298;28;20133;-79
2023/05/07 08:35:19;;;;;;;0.70;0.70;;;;;;;;;;4985473;28;20485;-81
2023/05/07 08:37:45;;;;;;;1.55;1.02;;;;;;;;;;4989659;28;20022;-80
2023/05/07 08:40:11;;;;;;;2.20;1.02;;;;;;;;;;4987189;28;20037;-83
2023/05/07 08:42:38;;;;;;;1.15;0.80;;;;;;;;;;4978061;28;20129;-82
2023/05/07 08:45:05;;;;;;;1.52;1.08;;;;;;;;;;4980332;28;20081;-84
2023/05/07 08:47:35;;;;;;;0.90;0.80;;;;;;;;;;4961385;28;20658;-81
2023/05/07 08:50:02;;;;;;;1.30;1.08;;;;;;;;;;4982150;28;20030;-83
2023/05/07 08:52:28;;;;;;;1.02;0.80;;;;;;;;;;4981721;28;20037;-83
2023/05/07 08:54:54;;;;;;;1.13;0.80;;;;;;;;;;4966717;28;20026;-83
2023/05/07 08:57:21;;;;;;;1.40;1.00;;;;;;;;;;4991177;28;20177;-78
2023/05/07 08:59:47;;;;;;;1.33;0.90;;;;;;;;;;4988357;28;20029;-81
2023/05/07 09:02:14;;;;;;;1.45;1.00;;;;;;;;;;4988115;28;20045;-83
2023/05/07 09:04:40;;;;;;;1.10;0.85;;;;;;;;;;4987897;28;20034;-83
2023/05/07 09:07:06;;;;;;;1.63;0.95;;;;;;;;;;4981443;28;20026;-86
2023/05/07 09:09:35;;;;;;;1.33;0.70;;;;;;;;;;4987937;28;20041;-82
2023/05/07 09:12:01;;;;;;;1.13;0.98;;;;;;;;;;4981875;28;20023;-79
2023/05/07 09:14:28;;;;;;;1.13;0.80;;;;;;;;;;4985224;28;20046;-81
2023/05/07 09:16:54;;;;;;;0.80;0.80;;;;;;;;;;4968481;28;20085;-81
2023/05/07 09:19:24;;;;;;;1.30;0.98;;;;;;;;;;4989856;28;20057;-82
2023/05/07 09:21:50;;;;;;;1.00;0.90;;;;;;;;;;4987006;28;20050;-79
2023/05/07 09:24:16;;;;;;;2.13;1.40;;;;;;;;;;4983475;28;20061;-80
2023/05/07 09:26:42;;;;;;;1.25;0.95;;;;;;;;;;4980216;28;20023;-79
2023/05/07 09:29:10;;;;;;;1.08;0.95;;;;;;;;;;4979061;28;20046;-80
2023/05/07 09:31:37;;;;;;;1.73;1.20;;;;;;;;;;4987360;28;20031;-80
2023/05/07 09:34:05;;;;;;;1.98;1.00;;;;;;;;;;4986854;28;20639;-85
2023/05/07 09:36:32;;;;;;;2.03;0.90;;;;;;;;;;4980044;28;20030;-77
2023/05/07 09:39:02;;;;;;;1.05;0.88;;;;;;;;;;4984300;28;20861;-78
2023/05/07 09:41:32;;;;;;;0.68;0.68;;;;;;;;;;4982794;28;20034;-80
2023/05/07 09:43:58;;;;;;;4.18;0.90;;;;;;;;;;4979782;28;20030;-78
2023/05/07 09:46:30;;;;;;;0.88;0.68;;;;;;;;;;4987443;28;20033;-79
2023/05/07 09:48:58;;;;;;;1.00;0.77;;;;;;;;;;4969494;28;20132;-79
2023/05/07 09:51:27;;;;;;;1.25;1.15;;;;;;;;;;4981753;28;20549;-80
2023/05/07 09:54:07;;;;;;;0.80;0.80;;;;;;;;;;4977659;28;20022;-79
2023/05/07 09:56:33;;;;;;;1.33;0.80;;;;;;;;;;4968962;28;20038;-79
2023/05/07 09:59:10;;;;;;;1.20;0.88;;;;;;;;;;4973678;28;20031;-78
2023/05/07 10:01:37;;;;;;;1.17;1.00;;;;;;;;;;4981358;28;20672;-78
2023/05/07 10:04:04;;;;;;;1.05;0.80;;;;;;;;;;4980665;28;20038;-77
2023/05/07 10:06:30;;;;;;;0.82;0.82;;;;;;;;;;4985657;28;20088;-77
2023/05/07 10:08:57;;;;;;;0.85;0.77;;;;;;;;;;4980652;28;20038;-80
2023/05/07 10:11:29;;;;;;;1.15;0.80;;;;;;;;;;4967404;28;20114;-82
2023/05/07 10:13:55;;;;;;;2.60;0.90;;;;;;;;;;4984797;28;20042;-79
2023/05/07 10:16:21;;;;;;;1.10;0.80;;;;;;;;;;4981647;28;20084;-80
2023/05/07 10:18:48;;;;;;;1.15;0.75;;;;;;;;;;4986512;28;20559;-78
2023/05/07 10:21:18;;;;;;;1.25;0.70;;;;;;;;;;4980357;28;20290;-76
2023/05/07 10:23:46;;;;;;;1.03;0.83;;;;;;;;;;4979446;28;20026;-81
2023/05/07 10:26:12;;;;;;;1.00;0.80;;;;;;;;;;4978876;28;20482;-81
2023/05/07 10:28:46;;;;;;;3.97;0.57;;;;;;;;;;4982935;28;20034;-80
2023/05/07 10:31:18;;;;;;;0.60;0.60;;;;;;;;;;4983544;28;20511;-83
2023/05/07 10:33:45;;;;;;;2.03;1.00;;;;;;;;;;4982620;28;20022;-80
2023/05/07 10:36:11;;;;;;;0.80;0.73;;;;;;;;;;4974907;28;20386;-79
2023/05/07 10:38:38;;;;;;;3.40;0.73;;;;;;;;;;4985650;28;20042;-80
2023/05/07 10:41:05;;;;;;;1.30;1.10;;;;;;;;;;4980103;28;20035;-81
2023/05/07 10:43:44;;;;;;;1.58;1.10;;;;;;;;;;4982153;28;20554;-81
2023/05/07 10:46:15;;;;;;;0.52;0.52;;;;;;;;;;4979499;28;20046;-80
2023/05/07 10:49:05;;;;;;;0.98;0.88;;;;;;;;;;4978787;28;20048;-80
2023/05/07 10:51:32;;;;;;;0.45;0.45;;;;;;;;;;4983138;28;20023;-80
2023/05/07 10:54:13;;;;;;;2.45;1.00;;;;;;;;;;4976379;28;20026;-80
2023/05/07 10:56:39;;;;;;;1.00;0.80;;;;;;;;;;4984108;28;20042;-80
2023/05/07 10:59:21;;;;;;;1.08;0.80;;;;;;;;;;4983547;28;20174;-81
2023/05/07 11:02:19;;;;;;;1.02;0.70;;;;;;;;;;4979466;28;20042;-79
2023/05/07 11:04:46;;;;;;;6.30;0.80;;;;;;;;;;4959712;28;20112;-78
2023/05/07 11:07:24;;;;;;;1.33;0.90;;;;;;;;;;4984031;28;20340;-79
2023/05/07 11:09:53;;;;;;;0.60;0.60;;;;;;;;;;4983748;28;20040;-81
2023/05/07 11:12:38;;;;;;;1.45;0.80;;;;;;;;;;4986795;28;20033;-80
2023/05/07 11:15:04;;;;;;;1.13;0.77;;;;;;;;;;4988743;28;20057;-80
2023/05/07 11:17:34;;;;;;;1.42;0.90;;;;;;;;;;4986454;28;20089;-80
2023/05/07 11:20:00;;;;;;;0.60;0.60;;;;;;;;;;4969462;28;20041;-81
2023/05/07 11:22:36;;;;;;;0.68;0.68;;;;;;;;;;4969435;28;20088;-80
2023/05/07 11:25:03;;;;;;;1.15;1.05;;;;;;;;;;4984161;28;20049;-81
2023/05/07 11:27:29;;;;;;;1.00;0.90;;;;;;;;;;4985416;28;20031;-80
2023/05/07 11:29:55;;;;;;;0.95;0.65;;;;;;;;;;4985480;28;20026;-80
2023/05/07 11:32:24;;;;;;;0.80;0.65;;;;;;;;;;4985865;28;20065;-80
2023/05/07 11:34:54;;;;;;;0.70;0.68;;;;;;;;;;4988224;28;20030;-81
2023/05/07 11:37:20;;;;;;;10.02;1.10;;;;;;;;;;4984548;28;20026;-80
2023/05/07 11:39:46;;;;;;;0.70;0.70;;;;;;;;;;4983510;28;20121;-80
2023/05/07 11:42:37;;;;;;;1.10;0.70;;;;;;;;;;4986200;28;20508;-81
2023/05/07 11:45:03;;;;;;;0.85;0.65;;;;;;;;;;4978094;28;20042;-81
2023/05/07 11:47:31;;;;;;;0.65;0.65;;;;;;;;;;4986328;28;20038;-82
2023/05/07 11:49:57;;;;;;;0.93;0.70;;;;;;;;;;4985396;28;20018;-80
2023/05/07 11:52:23;;;;;;;0.63;0.63;;;;;;;;;;4985193;28;20034;-80
2023/05/07 11:54:53;;;;;;;0.80;0.80;;;;;;;;;;4985691;28;20034;-79
2023/05/07 11:57:19;;;;;;;1.20;0.90;;;;;;;;;;4986670;28;20038;-81
2023/05/07 11:59:47;;;;;;;1.90;0.70;;;;;;;;;;4979642;28;20040;-81
2023/05/07 12:02:17;;;;;;;1.08;0.77;;;;;;;;;;4969128;28;20034;-81
2023/05/07 12:04:44;;;;;;;1.25;1.02;;;;;;;;;;4984364;28;20070;-81
2023/05/07 12:07:13;;;;;;;0.65;0.60;;;;;;;;;;4984410;28;20485;-79
2023/05/07 12:09:39;;;;;;;0.85;0.80;;;;;;;;;;4984754;28;20022;-82
2023/05/07 12:12:06;;;;;;;1.30;1.00;;;;;;;;;;4985627;28;20041;-83
2023/05/07 12:14:32;;;;;;;0.80;0.80;;;;;;;;;;4985896;28;20022;-82
2023/05/07 12:16:58;;;;;;;0.70;0.70;;;;;;;;;;4987366;28;20038;-80
2023/05/07 12:19:24;;;;;;;0.70;0.70;;;;;;;;;;4985927;28;20536;-82
2023/05/07 12:21:57;;;;;;;1.08;0.88;;;;;;;;;;4984006;28;20026;-82
2023/05/07 12:24:23;;;;;;;1.33;0.93;;;;;;;;;;4967859;28;20935;-82
2023/05/07 12:26:49;;;;;;;0.70;0.70;;;;;;;;;;4985361;28;20065;-80
2023/05/07 12:29:15;;;;;;;0.65;0.60;;;;;;;;;;4969044;28;20026;-80
2023/05/07 12:31:47;;;;;;;0.85;0.80;;;;;;;;;;4986531;28;20027;-84
2023/05/07 12:34:13;;;;;;;0.70;0.70;;;;;;;;;;4984970;28;20162;-79
2023/05/07 12:36:39;;;;;;;0.73;0.60;;;;;;;;;;4985013;28;20121;-78
2023/05/07 12:39:06;;;;;;;0.60;0.60;;;;;;;;;;4981197;28;20037;-80
2023/05/07 12:41:36;;;;;;;0.73;0.63;;;;;;;;;;4985994;28;20034;-81
2023/05/07 12:44:05;;;;;;;0.63;0.60;;;;;;;;;;4984740;28;20125;-78
2023/05/07 12:46:31;;;;;;;4.47;0.70;;;;;;;;;;4985648;28;20100;-81
2023/05/07 12:48:57;;;;;;;0.60;0.60;;;;;;;;;;4985662;28;20039;-84
2023/05/07 12:51:23;;;;;;;0.52;0.52;;;;;;;;;;4985940;28;20453;-78
2023/05/07 12:53:49;;;;;;;2.85;1.15;;;;;;;;;;4984442;28;20053;-76
2023/05/07 12:56:16;;;;;;;0.63;0.60;;;;;;;;;;4984646;28;20070;-78
2023/05/07 12:58:42;;;;;;;0.90;0.75;;;;;;;;;;4985459;28;20120;-81
2023/05/07 13:01:09;;;;;;;1.15;0.93;;;;;;;;;;4984152;28;20034;-79
2023/05/07 13:03:36;;;;;;;0.85;0.70;;;;;;;;;;4985983;28;20104;-78
2023/05/07 13:06:09;;;;;;;9.45;1.10;;;;;;;;;;4983891;28;20034;-79
2023/05/07 13:08:37;;;;;;;1.60;0.63;;;;;;;;;;4982828;28;20026;-80
2023/05/07 13:11:03;;;;;;;0.60;0.60;;;;;;;;;;4983147;28;20030;-80
2023/05/07 13:13:30;;;;;;;0.73;0.73;;;;;;;;;;4981456;28;20460;-79
2023/05/07 13:15:56;;;;;;;2.55;0.75;;;;;;;;;;4985065;28;20043;-80
2023/05/07 13:18:22;;;;;;;1.15;0.65;;;;;;;;;;4982707;28;20085;-80
2023/05/07 13:20:48;;;;;;;1.05;0.98;;;;;;;;;;4986480;28;20030;-80
2023/05/07 13:23:14;;;;;;;0.50;0.50;;;;;;;;;;4984933;28;20089;-81
2023/05/07 13:25:40;;;;;;;1.42;0.80;;;;;;;;;;4984462;28;20037;-80
2023/05/07 13:28:06;;;;;;;1.10;0.80;;;;;;;;;;4982758;28;20085;-78
2023/05/07 13:30:32;;;;;;;0.60;0.60;;;;;;;;;;4983804;28;20030;-78
2023/05/07 13:32:58;;;;;;;0.70;0.70;;;;;;;;;;4984072;28;20034;-78
2023/05/07 13:35:24;;;;;;;0.80;0.80;;;;;;;;;;4983662;28;20041;-78
2023/05/07 13:37:51;;;;;;;0.73;0.73;;;;;;;;;;4984616;28;20029;-79
2023/05/07 13:40:18;;;;;;;0.63;0.63;;;;;;;;;;4984766;28;20026;-78
2023/05/07 13:42:44;;;;;;;1.45;0.80;;;;;;;;;;4982689;28;20721;-78
2023/05/07 13:45:13;;;;;;;1.25;0.98;;;;;;;;;;4987377;28;20077;-78
2023/05/07 13:47:39;;;;;;;1.48;0.85;;;;;;;;;;4981576;28;20101;-78
2023/05/07 13:50:06;;;;;;;0.60;0.60;;;;;;;;;;4982885;28;20034;-78
2023/05/07 13:52:32;;;;;;;0.73;0.73;;;;;;;;;;4984882;28;20490;-78
2023/05/07 13:54:58;;;;;;;2.60;0.77;;;;;;;;;;4985106;28;20041;-78
2023/05/07 13:57:24;;;;;;;0.50;0.50;;;;;;;;;;4981762;28;20033;-80
2023/05/07 14:00:05;;;;;;;0.98;0.60;;;;;;;;;;4979474;28;20029;-81
2023/05/07 14:02:31;;;;;;;0.98;0.73;;;;;;;;;;4985507;28;20030;-81
2023/05/07 14:05:24;;;;;;;1.27;0.63;;;;;;;;;;4982025;28;20034;-81
2023/05/07 14:07:53;;;;;;;1.13;0.82;;;;;;;;;;4981954;28;20377;-78
2023/05/07 14:10:19;;;;;;;0.88;0.88;;;;;;;;;;4982819;28;20026;-80
2023/05/07 14:12:48;;;;;;;0.77;0.77;;;;;;;;;;4982399;28;20110;-79
2023/05/07 14:15:14;;;;;;;1.27;0.65;;;;;;;;;;4982436;28;20064;-78
2023/05/07 14:17:40;;;;;;;0.82;0.70;;;;;;;;;;4987494;28;20029;-78
2023/05/07 14:20:13;;;;;;;0.73;0.73;;;;;;;;;;4976106;28;20034;-76
2023/05/07 14:22:39;;;;;;;1.48;0.63;;;;;;;;;;4986416;28;20504;-77
2023/05/07 14:25:05;;;;;;;2.67;0.70;;;;;;;;;;4981633;28;20112;-75
2023/05/07 14:27:31;;;;;;;1.52;0.90;;;;;;;;;;4979755;28;20034;-78
2023/05/07 14:29:57;;;;;;;1.83;0.70;;;;;;;;;;4982859;28;20030;-77
2023/05/07 14:32:28;;;;;;;0.75;0.75;;;;;;;;;;4978641;28;20106;-76
2023/05/07 14:35:07;;;;;;;0.93;0.80;;;;;;;;;;4979137;28;20117;-78
2023/05/07 14:37:33;;;;;;;1.25;0.80;;;;;;;;;;4983529;28;20137;-79
2023/05/07 14:39:59;;;;;;;1.55;0.70;;;;;;;;;;4980286;28;20865;-77
2023/05/07 14:42:25;;;;;;;0.68;0.68;;;;;;;;;;4984864;28;20022;-78